Aeroporto :
LOGIN :

Iscrizione | Disclaimer

   EN    FR    IT 

 










Sommario :    VFR   VFR Marginale   IFR   IFR Intensivo   IFR Molto Intensivo
Visibilità : 
Base nubi : 
>= 8 km
>= 3000ft
5 / 8 km
1000 / 3000 ft
1500m / 5 km
500 / 1000 ft
800 / 1500m
200 / 500 ft
< 800m
< 200 ft
Simboli :   Temporali  Nebbia  Neve Forte  Precipitazioni Forti  Vento > 20 kt
SIGMETs :   Varie  Temporali  Ghiacco  Turbolenza  Onda orograficha  Ceneri Vulcaniche







- Altitudine del aeroporto : 215 ft
- Codice IATA : ABZ
- Carte del aeroporto


EGPD - Aberdeen / Dyce

ULTIMO METAR :
  • 201050Z 21014KT 9999 FEW018 SCT022 11/08 Q1004 NOSIG

METARs OBSOLETI :
  • 201020Z 17009KT 070V220 9999 FEW018 SCT022 11/08 Q1004 NOSIG
  • 200950Z 22008KT 170V280 9999 FEW018 SCT022 11/08 Q1004 NOSIG
  • 200920Z 21009KT 170V240 9999 FEW013 SCT022 11/08 Q1004 TEMPO BKN013
  • 200850Z 21011KT 9999 FEW014 SCT020 10/08 Q1004 TEMPO BKN014
  • 200820Z 16004KT 120V210 9999 SCT014 09/07 Q1004 TEMPO BKN014

TAF TAF EGPD
Valido dal 20 a 06 ore il 21 a 06 ore UTC


200502Z 2006/2106 18009KT 9999 FEW012 SCT040
PROB40
TEMPO 2006/2008 8000 -RA BKN008
TEMPO 2008/2015 BKN012
PROB40
TEMPO 2009/2012 BKN008
Nessun NOTAM noto per questo aeroporto.
1 SIGMET conosciuto per la FIR Scottish (EGPX) :
 
Forte onda orograficha
EGPX SIGMET 02 VALID 200930/201330 EGRR
EGPX SCOTTISH FIR SEV MTW FCST WI N5500 W00530 - N5355 W00530 - N5425 W00810 - N5507 W00713 - N5520 W00655 - N5838 W00648 - N5946 W00244 - N5847 W00016 - N5500 E00006 - N5500 W00530 FL030/250 STNR NC=



MetMap, La meteo Aeronautica in un colpo d'occhio ! - Copyright ORBIFLY Dicembre 2007 - Disclaimer

ORBIFLY MET'MAP TEAM :

Programmazione e sviluppo : Alexandra Zaïnal
Concezione e sviluppo : Baudouin d'Aumeries
Co-Programmazione e sviluppo : Marc-Olivier Méhu
Supporto tecnico e logistico : Manuel Goepfert
Aiuto per la traduzione : Arnaldo La Scala

Contatto : metmap@orbifly.com




FONTI E CREDITI :

   NOAA